Terminal Aerodrome Forecast
Issued by NWS

Home | Current Version | Previous Version | Text Only | Print | Product List | Glossary On
Versions: 1 2 3 4 5 6 7 8 9 10 11 12 13 14 15 16 17 18 19 20 21 22 23 24
000
FTUS43 KDLH 230500
TAFHYR
TAF
KHYR 230539Z 2306/2406 21015G21KT P6SM OVC010 WS020/23035KT
     FM230900 23008KT P6SM BKN014 OVC030 WS020/23035KT
     FM231300 25007KT P6SM -FZDZPL OVC007
     FM231800 26006KT P6SM OVC015
     FM232300 28005KT 6SM BR OVC015=

USA.gov is the U.S. government's official web portal to all federal, state and local government web resources and services.